This is the latest recevied weather packets stored in our database for station/object K2CCS. If no packets are shown the sender has not sent any weather packets the latest 10 day(s).
| Time | Temp. | Humidity | Pressure | Rain* | Wind** | Luminosity | Snow |
|---|---|---|---|---|---|---|---|
| 1778016638 | 19.44° C | 67% | 1008.6 hPa | 0 mm | - | 78 W/m² | - |
| 1778016335 | 20° C | 66% | 1009 hPa | 0 mm | - | 67 W/m² | - |
| 1778016032 | 20° C | 64% | 1009.3 hPa | 0 mm | - | 52 W/m² | - |
| 1778015729 | 20.56° C | 65% | 1009.4 hPa | 0 mm | - | 49 W/m² | - |
| 1778015426 | 20.56° C | 65% | 1009.6 hPa | 0 mm | - | 31 W/m² | - |
| 1778015123 | 20.56° C | 65% | 1009.4 hPa | 0 mm | - | 22 W/m² | - |
| 1778014820 | 21.11° C | 64% | 1009.5 hPa | 0 mm | - | 36 W/m² | - |
| 1778014518 | 21.67° C | 63% | 1009.3 hPa | 0 mm | - | 51 W/m² | - |
| 1778014215 | 21.67° C | 62% | 1009.3 hPa | 0 mm | - | 72 W/m² | - |
| 1778013912 | 21.67° C | 63% | 1009.1 hPa | 0 mm | - | 121 W/m² | - |
| 1778013609 | 21.67° C | 63% | 1008.5 hPa | 0 mm | - | 104 W/m² | - |
| 1778013306 | 22.78° C | 61% | 1008.3 hPa | 0 mm | - | 181 W/m² | - |
| 1778013003 | 22.78° C | 60% | 1008.1 hPa | 0 mm | - | 429 W/m² | - |
| 1778012699 | 22.22° C | 61% | 1008.2 hPa | 0 mm | - | 404 W/m² | - |
| 1778012395 | 21.67° C | 64% | 1008 hPa | 0 mm | - | 416 W/m² | - |
| 1778012092 | 21.11° C | 66% | 1007.9 hPa | 0 mm | - | 377 W/m² | - |
| 1778011790 | 20° C | 70% | 1007.8 hPa | 0 mm | - | 449 W/m² | - |
| 1778011488 | 19.44° C | 71% | 1007.3 hPa | 0 mm | - | 178 W/m² | - |
| 1778011183 | 18.89° C | 73% | 1007.9 hPa | 0 mm | - | 89 W/m² | - |
| 1778010880 | 19.44° C | 73% | 1009.1 hPa | 0 mm | - | 40 W/m² | - |
| 1778010577 | 19.44° C | 72% | 1009.4 hPa | 0 mm | - | 52 W/m² | - |
| 1778010275 | 20° C | 71% | 1009.6 hPa | 0 mm | - | 86 W/m² | - |
| 1778009975 | 20° C | 69% | 1009.5 hPa | 1.78 mm | - | 98 W/m² | - |
| 1778009673 | 20° C | 70% | 1009 hPa | 1.78 mm | - | 124 W/m² | - |
| 1778009370 | 20° C | 68% | 1009.3 hPa | 1.27 mm | - | 31 W/m² | - |
* Rain latest hour (hover to see other rain measurements)
** Current wind speed in m/s (hover to see current wind gust speed)